createdAt,value
2018-08-11T00:00:49.347Z,95.79
2018-08-11T00:01:49.590Z,95.03
2018-08-11T00:02:49.834Z,95.03
2018-08-11T00:03:50.075Z,95.12
2018-08-11T00:04:50.310Z,95.07
2018-08-11T00:05:50.553Z,94.70
2018-08-11T00:06:50.793Z,94.79
2018-08-11T00:07:51.035Z,94.70
2018-08-11T00:08:51.275Z,94.60
2018-08-11T00:09:51.516Z,94.98
2018-08-11T00:10:51.755Z,94.89
2018-08-11T00:11:51.998Z,94.79
2018-08-11T00:12:52.235Z,94.60
2018-08-11T00:13:52.479Z,94.41
2018-08-11T00:14:52.718Z,94.89
2018-08-11T00:15:52.960Z,94.60
2018-08-11T00:16:53.199Z,94.89
2018-08-11T00:17:53.441Z,94.02
2018-08-11T00:18:53.682Z,93.74
2018-08-11T00:19:53.924Z,93.12
2018-08-11T00:20:54.165Z,92.64
2018-08-11T00:21:54.410Z,91.88
2018-08-11T00:22:54.647Z,91.30
2018-08-11T00:23:54.888Z,91.39
2018-08-11T00:24:55.130Z,91.30
2018-08-11T00:25:55.371Z,91.11
2018-08-11T00:26:55.610Z,91.11
2018-08-11T00:27:55.853Z,91.02
2018-08-11T00:28:56.093Z,90.82
2018-08-11T00:29:56.334Z,91.11
2018-08-11T00:30:56.582Z,91.78
2018-08-11T00:31:56.816Z,92.07
2018-08-11T00:32:57.057Z,92.35
2018-08-11T00:33:57.297Z,92.64
2018-08-11T00:34:57.542Z,92.35
2018-08-11T00:35:57.780Z,93.31
2018-08-11T00:36:58.022Z,93.16
2018-08-11T00:37:58.262Z,93.64
2018-08-11T00:38:58.502Z,94.12
2018-08-11T00:39:58.744Z,93.16
2018-08-11T00:40:58.986Z,93.35
2018-08-11T00:41:59.227Z,93.74
2018-08-11T00:42:59.467Z,93.35
2018-08-11T00:43:59.715Z,94.02
2018-08-11T00:44:59.951Z,93.45
2018-08-11T00:46:00.191Z,93.55
2018-08-11T00:47:00.431Z,94.31
2018-08-11T00:48:00.672Z,94.02
2018-08-11T00:49:00.913Z,94.31
2018-08-11T00:50:01.154Z,94.41
2018-08-11T00:51:01.397Z,94.60
2018-08-11T00:52:01.637Z,94.60
2018-08-11T00:53:01.877Z,94.98
2018-08-11T00:54:02.117Z,94.41
2018-08-11T00:55:02.359Z,94.31
2018-08-11T00:56:02.599Z,94.50
2018-08-11T00:57:02.842Z,94.12
2018-08-11T00:58:03.080Z,94.02
2018-08-11T00:59:03.321Z,93.16
2018-08-11T01:00:03.561Z,93.93
2018-08-11T01:01:03.804Z,93.16
2018-08-11T01:02:04.044Z,94.70
2018-08-11T01:03:04.286Z,94.02
2018-08-11T01:04:04.528Z,94.31
2018-08-11T01:05:04.771Z,93.16
2018-08-11T01:06:05.009Z,93.55
2018-08-11T01:07:05.257Z,93.55
2018-08-11T01:08:05.495Z,93.45
2018-08-11T01:09:05.734Z,94.02
2018-08-11T01:10:05.975Z,93.93
2018-08-11T01:11:06.217Z,94.21
2018-08-11T01:12:06.457Z,94.41
2018-08-11T01:13:06.699Z,94.31
2018-08-11T01:14:06.940Z,94.12
2018-08-11T01:15:07.181Z,94.12
2018-08-11T01:16:07.423Z,93.84
2018-08-11T01:17:07.665Z,93.16
2018-08-11T01:18:07.906Z,93.21
2018-08-11T01:19:08.147Z,93.64
2018-08-11T01:20:08.388Z,92.88
2018-08-11T01:21:08.631Z,92.88
2018-08-11T01:22:08.874Z,92.88
2018-08-11T01:23:09.115Z,93.07
2018-08-11T01:24:09.355Z,92.74
2018-08-11T01:25:09.595Z,92.07
2018-08-11T01:26:09.836Z,91.20
2018-08-11T01:27:10.077Z,91.30
2018-08-11T01:28:10.319Z,90.82
2018-08-11T01:29:10.560Z,90.63
2018-08-11T01:30:10.800Z,90.25
2018-08-11T01:31:11.041Z,90.34
2018-08-11T01:32:11.281Z,89.44
2018-08-11T01:33:11.525Z,88.77
2018-08-11T01:34:11.761Z,87.62
2018-08-11T01:35:12.004Z,88.29
2018-08-11T01:36:12.243Z,88.77
2018-08-11T01:37:12.485Z,88.77
2018-08-11T01:38:12.726Z,89.06
2018-08-11T01:39:12.965Z,89.25
2018-08-11T01:40:13.210Z,89.01
2018-08-11T01:41:13.447Z,89.96
2018-08-11T01:42:13.688Z,89.20
2018-08-11T01:43:13.929Z,89.10
2018-08-11T01:44:14.220Z,88.91
2018-08-11T01:45:14.411Z,88.72
2018-08-11T01:46:14.653Z,88.58
2018-08-11T01:47:14.892Z,89.15
2018-08-11T01:48:15.134Z,88.68
2018-08-11T01:49:15.373Z,88.77
2018-08-11T01:50:15.615Z,89.25
2018-08-11T01:51:15.857Z,88.68
2018-08-11T01:52:16.096Z,89.87
2018-08-11T01:53:16.336Z,89.96
2018-08-11T01:54:16.577Z,90.25
2018-08-11T01:55:16.818Z,90.63
2018-08-11T01:56:17.060Z,90.82
2018-08-11T01:57:17.302Z,89.87
2018-08-11T01:58:17.544Z,89.96
2018-08-11T01:59:17.782Z,90.06
2018-08-11T02:00:18.021Z,89.20
2018-08-11T02:01:18.260Z,89.67
2018-08-11T02:02:18.501Z,90.44
2018-08-11T02:03:18.742Z,90.34
2018-08-11T02:04:18.980Z,90.49
2018-08-11T02:05:19.223Z,90.44
2018-08-11T02:06:19.461Z,89.96
2018-08-11T02:07:19.700Z,90.63
2018-08-11T02:08:19.934Z,90.25
2018-08-11T02:09:20.174Z,89.67
2018-08-11T02:10:20.414Z,90.73
2018-08-11T02:11:20.777Z,89.53
2018-08-11T02:12:20.896Z,90.25
2018-08-11T02:13:21.136Z,89.96
2018-08-11T02:14:21.374Z,90.44
2018-08-11T02:15:21.616Z,90.25
2018-08-11T02:16:21.855Z,89.87
2018-08-11T02:17:22.096Z,90.06
2018-08-11T02:18:22.337Z,89.92
2018-08-11T02:19:22.576Z,88.96
2018-08-11T02:20:22.816Z,88.39
2018-08-11T02:21:23.060Z,87.82
2018-08-11T02:22:23.296Z,87.15
2018-08-11T02:23:23.537Z,86.00
2018-08-11T02:24:23.776Z,85.90
2018-08-11T02:25:24.018Z,85.62
2018-08-11T02:26:24.257Z,85.90
2018-08-11T02:27:24.498Z,87.62
2018-08-11T02:28:24.738Z,88.68
2018-08-11T02:29:24.978Z,88.68
2018-08-11T02:30:25.223Z,89.87
2018-08-11T02:31:25.459Z,89.20
2018-08-11T02:32:25.703Z,88.87
2018-08-11T02:33:25.943Z,89.06
2018-08-11T02:34:26.278Z,88.58
2018-08-11T02:35:26.422Z,88.87
2018-08-11T02:36:26.665Z,88.68
2018-08-11T02:37:26.900Z,89.34
2018-08-11T02:38:27.150Z,88.68
2018-08-11T02:39:27.379Z,88.96
2018-08-11T02:40:27.623Z,88.58
2018-08-11T02:41:27.864Z,87.72
2018-08-11T02:42:28.100Z,88.39
2018-08-11T02:43:28.339Z,88.29
2018-08-11T02:44:28.581Z,87.82
2018-08-11T02:45:28.820Z,88.01
2018-08-11T02:46:29.060Z,87.62
2018-08-11T02:47:29.299Z,87.91
2018-08-11T02:48:29.539Z,88.77
2018-08-11T02:49:29.780Z,88.91
2018-08-11T02:50:30.020Z,88.62
2018-08-11T02:51:30.258Z,88.81
2018-08-11T02:52:30.500Z,89.06
2018-08-11T02:53:30.739Z,88.91
2018-08-11T02:54:30.979Z,88.34
2018-08-11T02:55:31.215Z,89.20
2018-08-11T02:56:31.456Z,87.86
2018-08-11T02:57:31.700Z,88.39
2018-08-11T02:58:31.934Z,88.15
2018-08-11T02:59:32.174Z,88.39
2018-08-11T03:00:32.414Z,87.53
2018-08-11T03:01:32.654Z,87.91
2018-08-11T03:02:32.934Z,87.72
2018-08-11T03:03:33.133Z,87.82
2018-08-11T03:04:33.373Z,87.82
2018-08-11T03:05:33.620Z,87.62
2018-08-11T03:06:33.857Z,87.91
2018-08-11T03:07:34.094Z,86.96
2018-08-11T03:08:34.333Z,88.48
2018-08-11T03:09:34.574Z,88.34
2018-08-11T03:10:34.815Z,88.72
2018-08-11T03:11:35.057Z,88.01
2018-08-11T03:12:35.293Z,87.38
2018-08-11T03:13:35.535Z,88.53
2018-08-11T03:14:35.776Z,88.91
2018-08-11T03:15:36.021Z,88.62
2018-08-11T03:16:36.254Z,89.20
2018-08-11T03:17:36.494Z,89.87
2018-08-11T03:18:36.735Z,89.77
2018-08-11T03:19:36.974Z,89.48
2018-08-11T03:20:37.215Z,90.44
2018-08-11T03:21:37.454Z,89.67
2018-08-11T03:22:37.694Z,90.16
2018-08-11T03:23:37.933Z,91.02
2018-08-11T03:24:38.172Z,91.39
2018-08-11T03:25:38.412Z,90.92
2018-08-11T03:26:38.651Z,90.63
2018-08-11T03:27:38.893Z,91.39
2018-08-11T03:28:39.131Z,91.97
2018-08-11T03:29:39.370Z,92.45
2018-08-11T03:30:39.611Z,91.78
2018-08-11T03:31:39.851Z,92.35
2018-08-11T03:32:40.091Z,92.25
2018-08-11T03:33:40.330Z,93.21
2018-08-11T03:34:40.570Z,93.55
2018-08-11T03:35:40.811Z,93.40
2018-08-11T03:36:41.049Z,94.02
2018-08-11T03:37:41.291Z,93.16
2018-08-11T03:38:41.528Z,93.69
2018-08-11T03:39:41.767Z,93.79
2018-08-11T03:40:42.006Z,93.07
2018-08-11T03:41:42.246Z,93.84
2018-08-11T03:42:42.485Z,94.60
2018-08-11T03:43:42.726Z,94.41
2018-08-11T03:44:42.964Z,94.89
2018-08-11T03:45:43.211Z,94.70
2018-08-11T03:46:43.444Z,94.60
2018-08-11T03:47:43.686Z,95.17
2018-08-11T03:48:43.924Z,95.84
2018-08-11T03:49:44.163Z,96.03
2018-08-11T03:50:44.403Z,96.13
2018-08-11T03:51:44.649Z,96.32
2018-08-11T03:52:44.885Z,96.89
2018-08-11T03:53:45.125Z,96.22
2018-08-11T03:54:45.365Z,96.18
2018-08-11T03:55:45.606Z,96.84
2018-08-11T03:56:45.846Z,97.33
2018-08-11T03:57:46.087Z,96.56
2018-08-11T03:58:46.327Z,96.75
2018-08-11T03:59:46.567Z,96.47
2018-08-11T04:00:46.809Z,96.08
2018-08-11T04:01:47.048Z,96.18
2018-08-11T04:02:47.290Z,96.75
2018-08-11T04:03:47.529Z,97.04
2018-08-11T04:04:47.769Z,96.42
2018-08-11T04:05:48.009Z,95.98
2018-08-11T04:06:48.256Z,96.66
2018-08-11T04:07:48.492Z,96.08
2018-08-11T04:08:48.732Z,95.70
2018-08-11T04:09:48.975Z,95.89
2018-08-11T04:10:49.214Z,96.56
2018-08-11T04:11:49.455Z,96.27
2018-08-11T04:12:49.694Z,96.56
2018-08-11T04:13:49.932Z,96.47
2018-08-11T04:14:50.174Z,97.04
2018-08-11T04:15:50.412Z,96.66
2018-08-11T04:16:50.654Z,96.80
2018-08-11T04:17:50.894Z,96.51
2018-08-11T04:18:51.136Z,96.75
2018-08-11T04:19:51.376Z,96.66
2018-08-11T04:20:51.618Z,96.75
2018-08-11T04:21:51.857Z,96.75
2018-08-11T04:22:52.097Z,96.84
2018-08-11T04:23:52.337Z,96.75
2018-08-11T04:24:52.578Z,96.75
2018-08-11T04:25:52.819Z,96.47
2018-08-11T04:26:53.060Z,96.99
2018-08-11T04:27:53.300Z,96.13
2018-08-11T04:28:53.541Z,96.94
2018-08-11T04:29:53.781Z,96.94
2018-08-11T04:30:54.022Z,95.61
2018-08-11T04:31:54.262Z,95.98
2018-08-11T04:32:54.504Z,96.47
2018-08-11T04:33:54.744Z,96.18
2018-08-11T04:34:54.984Z,95.89
2018-08-11T04:35:55.225Z,95.89
2018-08-11T04:36:55.463Z,96.18
2018-08-11T04:37:55.704Z,94.55
2018-08-11T04:38:55.946Z,95.51
2018-08-11T04:39:56.186Z,95.22
2018-08-11T04:40:56.426Z,96.08
2018-08-11T04:41:56.683Z,94.84
2018-08-11T04:42:56.909Z,95.41
2018-08-11T04:43:57.149Z,95.41
2018-08-11T04:44:57.389Z,95.31
2018-08-11T04:45:57.631Z,95.22
2018-08-11T04:46:57.871Z,95.41
2018-08-11T04:47:58.114Z,95.41
2018-08-11T04:48:58.352Z,95.12
2018-08-11T04:49:58.597Z,95.41
2018-08-11T04:50:58.836Z,95.41
2018-08-11T04:51:59.079Z,94.84
2018-08-11T04:52:59.319Z,95.41
2018-08-11T04:53:59.560Z,96.18
2018-08-11T04:54:59.800Z,95.22
2018-08-11T04:56:00.040Z,96.08
2018-08-11T04:57:00.283Z,95.98
2018-08-11T04:58:00.521Z,96.08
2018-08-11T04:59:00.767Z,96.18
2018-08-11T05:00:01.005Z,95.89
2018-08-11T05:01:01.247Z,95.51
2018-08-11T05:02:01.489Z,96.18
2018-08-11T05:03:01.729Z,96.75
2018-08-11T05:04:01.970Z,96.18
2018-08-11T05:05:02.213Z,96.70
2018-08-11T05:06:02.455Z,96.08
2018-08-11T05:07:02.694Z,95.79
2018-08-11T05:08:02.934Z,96.47
2018-08-11T05:09:03.174Z,96.22
2018-08-11T05:10:03.415Z,95.84
2018-08-11T05:11:03.658Z,96.22
2018-08-11T05:12:03.901Z,95.94
2018-08-11T05:13:04.140Z,96.89
2018-08-11T05:14:04.381Z,96.80
2018-08-11T05:15:04.623Z,96.61
2018-08-11T05:16:04.862Z,96.89
2018-08-11T05:17:05.103Z,96.22
2018-08-11T05:18:05.344Z,96.61
2018-08-11T05:19:05.589Z,95.94
2018-08-11T05:20:05.830Z,96.61
2018-08-11T05:21:06.069Z,96.13
2018-08-11T05:22:06.310Z,96.80
2018-08-11T05:23:06.554Z,97.09
2018-08-11T05:24:06.792Z,96.51
2018-08-11T05:25:07.034Z,96.51
2018-08-11T05:26:07.277Z,96.75
2018-08-11T05:27:07.517Z,96.61
2018-08-11T05:28:07.758Z,97.14
2018-08-11T05:29:07.999Z,97.04
2018-08-11T05:30:08.243Z,96.84
2018-08-11T05:31:08.480Z,96.75
2018-08-11T05:32:08.721Z,96.66
2018-08-11T05:33:08.974Z,96.84
2018-08-11T05:34:09.204Z,96.56
2018-08-11T05:35:09.448Z,97.04
2018-08-11T05:36:09.688Z,96.56
2018-08-11T05:37:09.930Z,96.84
2018-08-11T05:38:10.171Z,96.75
2018-08-11T05:39:10.414Z,96.66
2018-08-11T05:40:10.656Z,96.51
2018-08-11T05:41:10.898Z,96.89
2018-08-11T05:42:11.143Z,96.32
2018-08-11T05:43:11.381Z,96.13
2018-08-11T05:44:11.622Z,96.13
2018-08-11T05:45:11.864Z,96.89
2018-08-11T05:46:12.105Z,95.94
2018-08-11T05:47:12.347Z,95.17
2018-08-11T05:48:12.590Z,95.36
2018-08-11T05:49:12.833Z,95.07
2018-08-11T05:50:13.074Z,95.84
2018-08-11T05:51:13.315Z,96.03
2018-08-11T05:52:13.558Z,95.17
2018-08-11T05:53:13.801Z,95.56
2018-08-11T05:54:14.041Z,95.07
2018-08-11T05:55:14.309Z,95.26
2018-08-11T05:56:14.529Z,95.46
2018-08-11T05:57:14.775Z,95.36
2018-08-11T05:58:15.010Z,95.70
2018-08-11T05:59:15.250Z,94.93
2018-08-11T06:00:15.492Z,95.03
2018-08-11T06:01:15.733Z,94.98
2018-08-11T06:02:15.976Z,94.93
2018-08-11T06:03:16.217Z,94.35
2018-08-11T06:04:16.459Z,94.54
2018-08-11T06:05:16.703Z,93.78
2018-08-11T06:06:16.945Z,93.30
2018-08-11T06:07:17.187Z,93.59
2018-08-11T06:08:17.429Z,92.72
2018-08-11T06:09:17.670Z,92.86
2018-08-11T06:10:17.912Z,91.72
2018-08-11T06:11:18.155Z,91.62
2018-08-11T06:12:18.395Z,90.37
2018-08-11T06:13:18.638Z,89.26
2018-08-11T06:14:18.887Z,89.17
2018-08-11T06:15:19.129Z,88.79
2018-08-11T06:16:19.376Z,88.35
2018-08-11T06:17:19.623Z,88.17
2018-08-11T06:18:19.857Z,89.22
2018-08-11T06:19:20.098Z,88.65
2018-08-11T06:20:20.341Z,89.61
2018-08-11T06:21:20.584Z,88.45
2018-08-11T06:22:20.827Z,88.55
2018-08-11T06:23:21.069Z,89.79
2018-08-11T06:24:21.314Z,88.93
2018-08-11T06:25:21.553Z,88.31
2018-08-11T06:26:21.796Z,88.31
2018-08-11T06:27:22.039Z,87.25
2018-08-11T06:28:22.283Z,87.01
2018-08-11T06:29:22.529Z,87.11
2018-08-11T06:30:22.768Z,88.45
2018-08-11T06:31:23.056Z,88.45
2018-08-11T06:32:23.264Z,88.93
2018-08-11T06:33:23.498Z,89.12
2018-08-11T06:34:23.741Z,88.26
2018-08-11T06:35:23.985Z,88.84
2018-08-11T06:36:24.227Z,88.21
2018-08-11T06:37:24.469Z,86.15
2018-08-11T06:38:24.712Z,87.15
2018-08-11T06:39:24.959Z,85.24
2018-08-11T06:40:25.212Z,85.52
2018-08-11T06:41:25.443Z,85.24
2018-08-11T06:42:25.675Z,83.98
2018-08-11T06:43:25.916Z,85.14
2018-08-11T06:44:26.166Z,84.37
2018-08-11T06:45:26.401Z,82.97
2018-08-11T06:46:26.645Z,83.16
2018-08-11T06:47:26.892Z,82.01
2018-08-11T06:48:27.137Z,80.96
2018-08-11T06:49:27.380Z,83.26
2018-08-11T06:50:27.624Z,83.22
2018-08-11T06:51:27.868Z,83.89
2018-08-11T06:52:28.108Z,84.66
2018-08-11T06:53:28.353Z,85.14
2018-08-11T06:54:28.595Z,86.05
2018-08-11T06:55:28.892Z,83.93
2018-08-11T06:56:29.082Z,83.16
2018-08-11T06:57:29.324Z,82.40
2018-08-11T06:58:29.567Z,81.72
2018-08-11T06:59:29.808Z,81.19
2018-08-11T07:00:30.050Z,78.59
2018-08-11T07:01:30.297Z,76.39
2018-08-11T07:02:30.563Z,69.76
2018-08-11T07:03:30.807Z,70.01
2018-08-11T07:04:31.053Z,69.92
2018-08-11T07:05:31.294Z,69.15
2018-08-11T07:06:31.544Z,69.92
2018-08-11T07:07:31.972Z,73.15
2018-08-11T07:08:31.992Z,74.46
2018-08-11T07:09:32.233Z,79.71
2018-08-11T07:10:32.478Z,79.71
2018-08-11T07:11:32.721Z,85.14
2018-08-11T07:12:32.966Z,88.07
2018-08-11T07:13:33.211Z,90.08
2018-08-11T07:14:33.454Z,93.15
2018-08-11T07:15:33.699Z,93.15
2018-08-11T07:16:33.942Z,93.54
2018-08-11T07:17:34.190Z,94.21
2018-08-11T07:18:34.432Z,92.39
2018-08-11T07:19:34.673Z,92.29
2018-08-11T07:20:34.918Z,95.98
2018-08-11T07:21:35.161Z,94.45
2018-08-11T07:22:35.404Z,94.54
2018-08-11T07:23:35.651Z,95.75
2018-08-11T07:24:35.893Z,96.42
2018-08-11T07:25:36.133Z,95.94
2018-08-11T07:26:36.435Z,95.46
2018-08-11T07:27:36.616Z,95.84
2018-08-11T07:28:36.859Z,96.32
2018-08-11T07:29:37.102Z,95.98
2018-08-11T07:30:37.344Z,94.40
2018-08-11T07:31:37.588Z,88.44
2018-08-11T07:32:37.830Z,89.45
2018-08-11T07:33:38.076Z,91.18
2018-08-11T07:34:38.317Z,85.31
2018-08-11T07:35:38.560Z,72.75
2018-08-11T07:36:38.854Z,63.76
2018-08-11T07:37:39.048Z,60.77
2018-08-11T07:38:39.293Z,63.89
2018-08-11T07:39:39.536Z,69.83
2018-08-11T07:40:39.780Z,69.15
2018-08-11T07:41:40.025Z,66.88
2018-08-11T07:42:40.271Z,63.44
2018-08-11T07:43:40.514Z,63.09
2018-08-11T07:44:40.764Z,60.48
2018-08-11T07:45:41.005Z,60.38
2018-08-11T07:46:41.252Z,58.32
2018-08-11T07:47:41.569Z,59.61
2018-08-11T07:48:41.746Z,59.71
2018-08-11T07:49:42.000Z,61.25
2018-08-11T07:50:42.243Z,60.45
2018-08-11T07:51:42.488Z,59.83
2018-08-11T07:52:42.733Z,57.48
2018-08-11T07:53:42.979Z,55.38
2018-08-11T07:54:43.225Z,58.17
2018-08-11T07:55:43.474Z,62.93
2018-08-11T07:56:43.722Z,63.41
2018-08-11T07:57:43.967Z,65.08
2018-08-11T07:58:44.213Z,61.74
2018-08-11T07:59:44.460Z,60.28
2018-08-11T08:00:44.707Z,59.55
2018-08-11T08:01:44.955Z,61.06
2018-08-11T08:02:45.201Z,61.22
2018-08-11T08:03:45.449Z,58.77
2018-08-11T08:04:45.697Z,57.16
2018-08-11T08:05:45.944Z,57.45
2018-08-11T08:06:46.192Z,57.71
2018-08-11T08:07:46.441Z,55.74
2018-08-11T08:08:46.685Z,55.35
2018-08-11T08:09:46.932Z,53.71
2018-08-11T08:10:47.179Z,54.22
2018-08-11T08:11:47.426Z,54.29
2018-08-11T08:12:47.673Z,54.29
2018-08-11T08:13:47.996Z,54.15
2018-08-11T08:14:48.168Z,51.86
2018-08-11T08:15:48.416Z,51.56
2018-08-11T08:16:48.664Z,51.56
2018-08-11T08:17:48.913Z,51.86
2018-08-11T08:18:49.159Z,50.82
2018-08-11T08:19:49.405Z,50.43
2018-08-11T08:20:49.651Z,53.97
2018-08-11T08:21:49.902Z,59.78
2018-08-11T08:22:50.151Z,62.28
2018-08-11T08:23:50.402Z,61.80
2018-08-11T08:24:50.647Z,63.89
2018-08-11T08:25:50.895Z,64.02
2018-08-11T08:26:51.153Z,60.03
2018-08-11T08:27:51.392Z,58.51
2018-08-11T08:28:51.640Z,56.13
2018-08-11T08:29:52.026Z,55.65
2018-08-11T08:30:52.136Z,54.87
2018-08-11T08:31:52.381Z,53.86
2018-08-11T08:32:52.635Z,52.51
2018-08-11T08:33:52.897Z,52.92
2018-08-11T08:34:53.131Z,51.01
2018-08-11T08:35:53.380Z,52.63
2018-08-11T08:36:53.628Z,51.08
2018-08-11T08:37:53.876Z,52.14
2018-08-11T08:38:54.126Z,55.88
2018-08-11T08:39:54.374Z,59.20
2018-08-11T08:40:54.624Z,57.90
2018-08-11T08:41:54.969Z,61.00
2018-08-11T08:42:55.125Z,66.33
2018-08-11T08:43:55.371Z,70.76
2018-08-11T08:44:55.618Z,71.43
2018-08-11T08:45:55.867Z,72.84
2018-08-11T08:46:56.115Z,73.55
2018-08-11T08:47:56.361Z,61.44
2018-08-11T08:48:56.610Z,62.99
2018-08-11T08:49:56.858Z,60.80
2018-08-11T08:50:57.105Z,55.67
2018-08-11T08:51:57.352Z,56.91
2018-08-11T08:52:57.603Z,57.54
2018-08-11T08:53:57.848Z,59.32
2018-08-11T08:54:58.096Z,61.96
2018-08-11T08:55:58.343Z,66.17
2018-08-11T08:56:58.591Z,70.89
2018-08-11T08:57:58.837Z,70.50
2018-08-11T08:58:59.102Z,68.96
2018-08-11T08:59:59.332Z,60.93
2018-08-11T09:00:59.577Z,54.88
2018-08-11T09:01:59.824Z,51.52
2018-08-11T09:03:00.075Z,51.81
2018-08-11T09:04:00.326Z,51.64
2018-08-11T09:05:00.572Z,50.92
2018-08-11T09:06:00.822Z,48.80
2018-08-11T09:07:01.068Z,45.45
2018-08-11T09:08:01.317Z,44.65
2018-08-11T09:09:01.565Z,47.45
2018-08-11T09:10:01.818Z,49.24
2018-08-11T09:11:02.065Z,49.34
2018-08-11T09:12:02.402Z,48.88
2018-08-11T09:13:02.562Z,48.35
2018-08-11T09:14:02.813Z,46.75
2018-08-11T09:15:03.064Z,44.88
2018-08-11T09:16:03.309Z,46.22
2018-08-11T09:17:03.559Z,48.15
2018-08-11T09:18:03.809Z,49.95
2018-08-11T09:19:04.058Z,50.18
2018-08-11T09:20:04.311Z,50.52
2018-08-11T09:21:04.563Z,52.81
2018-08-11T09:22:04.814Z,53.05
2018-08-11T09:23:05.062Z,54.11
2018-08-11T09:24:05.345Z,53.89
2018-08-11T09:25:05.595Z,57.65
2018-08-11T09:26:05.841Z,56.47
2018-08-11T09:27:06.091Z,59.20
2018-08-11T09:28:06.338Z,56.20
2018-08-11T09:29:06.602Z,54.09
2018-08-11T09:30:06.838Z,57.82
2018-08-11T09:31:07.082Z,53.91
2018-08-11T09:32:07.332Z,53.71
2018-08-11T09:33:07.581Z,48.37
2018-08-11T09:34:07.829Z,46.60
2018-08-11T09:35:08.078Z,44.81
2018-08-11T09:36:08.324Z,46.92
2018-08-11T09:37:08.573Z,48.97
2018-08-11T09:38:08.822Z,51.53
2018-08-11T09:39:09.104Z,52.33
2018-08-11T09:40:09.356Z,48.83
2018-08-11T09:41:09.607Z,47.21
2018-08-11T09:42:09.919Z,46.78
2018-08-11T09:43:10.181Z,47.84
2018-08-11T09:44:10.537Z,46.80
2018-08-11T09:45:10.934Z,48.52
2018-08-11T09:46:11.186Z,46.67
2018-08-11T09:47:11.450Z,44.59
2018-08-11T09:48:11.753Z,45.83
2018-08-11T09:49:12.001Z,47.65
2018-08-11T09:50:12.251Z,48.74
2018-08-11T09:51:12.500Z,50.28
2018-08-11T09:52:13.138Z,50.04
2018-08-11T09:53:13.416Z,49.49
2018-08-11T09:54:13.462Z,47.67
2018-08-11T09:55:13.711Z,47.04
2018-08-11T09:56:14.045Z,43.79
2018-08-11T09:57:14.300Z,43.26
2018-08-11T09:58:14.639Z,40.99
2018-08-11T09:59:14.890Z,42.75
2018-08-11T10:00:15.141Z,42.52
2018-08-11T10:01:15.386Z,41.28
2018-08-11T10:02:15.736Z,40.89
2018-08-11T10:03:15.994Z,43.65
2018-08-11T10:04:16.247Z,42.51
2018-08-11T10:05:16.500Z,41.51
2018-08-11T10:06:16.770Z,40.21
2018-08-11T10:07:17.037Z,38.81
2018-08-11T10:08:17.286Z,36.50
2018-08-11T10:09:17.666Z,38.23
2018-08-11T10:10:17.983Z,38.64
2018-08-11T10:11:18.237Z,38.57
2018-08-11T10:12:18.484Z,37.99
2018-08-11T10:13:18.739Z,37.80
2018-08-11T10:14:18.985Z,37.76
2018-08-11T10:15:19.237Z,35.52
2018-08-11T10:16:19.488Z,36.61
2018-08-11T10:17:19.812Z,35.50
2018-08-11T10:18:20.068Z,35.70
2018-08-11T10:19:20.324Z,36.40
2018-08-11T10:20:20.600Z,35.13
2018-08-11T10:21:20.857Z,35.84
2018-08-11T10:22:21.113Z,36.99
2018-08-11T10:23:21.418Z,39.11
2018-08-11T10:24:21.782Z,40.95
2018-08-11T10:25:22.070Z,38.40
2018-08-11T10:26:22.349Z,37.66
2018-08-11T10:27:22.664Z,38.15
2018-08-11T10:28:22.977Z,38.13
2018-08-11T10:29:23.229Z,37.66
2018-08-11T10:30:23.480Z,38.37
2018-08-11T10:31:23.735Z,37.10
2018-08-11T10:32:23.995Z,37.76
2018-08-11T10:33:24.434Z,38.62
2018-08-11T10:34:24.619Z,38.75
2018-08-11T10:35:24.872Z,37.78
2018-08-11T10:36:25.128Z,37.80
2018-08-11T10:37:25.380Z,36.55
2018-08-11T10:38:25.633Z,38.70
2018-08-11T10:39:25.886Z,40.33
2018-08-11T10:40:26.695Z,40.54
2018-08-11T10:41:27.519Z,41.17
2018-08-11T10:42:26.788Z,40.85
2018-08-11T10:43:27.040Z,40.11
2018-08-11T10:44:27.290Z,40.56
2018-08-11T10:45:27.542Z,37.52
2018-08-11T10:46:27.795Z,36.47
2018-08-11T10:47:28.047Z,37.78
2018-08-11T10:48:28.302Z,36.85
2018-08-11T10:49:28.555Z,37.49
2018-08-11T10:50:28.808Z,37.51
2018-08-11T10:51:29.060Z,36.55
2018-08-11T10:52:29.314Z,37.98
2018-08-11T10:53:29.571Z,37.99
2018-08-11T10:54:29.823Z,38.15
2018-08-11T10:55:30.077Z,38.19
2018-08-11T10:56:30.328Z,37.60
2018-08-11T10:57:30.580Z,37.82
2018-08-11T10:58:30.833Z,37.92
2018-08-11T10:59:31.174Z,36.38
2018-08-11T11:00:31.454Z,36.54
2018-08-11T11:01:31.705Z,37.70
2018-08-11T11:02:31.956Z,38.09
2018-08-11T11:03:32.209Z,40.66
2018-08-11T11:04:32.463Z,41.47
2018-08-11T11:05:33.328Z,38.91
2018-08-11T11:06:33.019Z,39.92
2018-08-11T11:07:33.347Z,40.83
2018-08-11T11:08:44.520Z,41.24
2018-08-11T11:09:33.945Z,43.82
2018-08-11T11:10:34.198Z,42.54
2018-08-11T11:11:34.449Z,37.92
2018-08-11T11:12:34.700Z,37.34
2018-08-11T11:13:34.953Z,38.02
2018-08-11T11:14:35.210Z,39.24
2018-08-11T11:15:35.458Z,41.42
2018-08-11T11:16:35.711Z,41.11
2018-08-11T11:17:35.966Z,42.47
2018-08-11T11:18:36.216Z,40.92
2018-08-11T11:19:36.465Z,42.34
2018-08-11T11:20:36.718Z,40.23
2018-08-11T11:21:36.969Z,40.77
2018-08-11T11:22:37.223Z,40.44
2018-08-11T11:23:37.472Z,41.87
2018-08-11T11:24:37.726Z,42.18
2018-08-11T11:25:37.975Z,39.55
2018-08-11T11:26:38.226Z,39.88
2018-08-11T11:27:38.477Z,41.67
2018-08-11T11:28:38.728Z,43.30
2018-08-11T11:29:38.979Z,41.86
2018-08-11T11:30:39.232Z,39.12
2018-08-11T11:31:39.484Z,36.79
2018-08-11T11:32:39.731Z,36.22
2018-08-11T11:33:39.981Z,35.33
2018-08-11T11:34:40.234Z,35.59
2018-08-11T11:35:40.486Z,36.32
2018-08-11T11:36:40.738Z,36.91
2018-08-11T11:37:40.990Z,36.19
2018-08-11T11:38:41.244Z,34.11
2018-08-11T11:39:41.493Z,32.94
2018-08-11T11:40:41.745Z,33.28
2018-08-11T11:41:41.995Z,31.46
2018-08-11T11:42:42.256Z,31.96
2018-08-11T11:43:42.504Z,31.01
2018-08-11T11:44:42.752Z,30.83
2018-08-11T11:45:43.005Z,30.70
2018-08-11T11:46:43.257Z,31.48
2018-08-11T11:47:43.510Z,30.63
2018-08-11T11:48:43.763Z,30.54
2018-08-11T11:49:44.018Z,31.01
2018-08-11T11:50:44.271Z,30.71
2018-08-11T11:51:44.524Z,30.91
2018-08-11T11:52:44.782Z,34.04
2018-08-11T11:53:45.038Z,34.95
2018-08-11T11:54:45.287Z,32.78
2018-08-11T11:55:45.541Z,32.20
2018-08-11T11:56:45.792Z,33.07
2018-08-11T11:57:46.047Z,31.25
2018-08-11T11:58:46.300Z,30.31
2018-08-11T11:59:46.577Z,28.36
2018-08-11T12:00:46.806Z,28.43
2018-08-11T12:01:47.061Z,29.66
2018-08-11T12:02:47.316Z,30.54
2018-08-11T12:03:47.569Z,31.22
2018-08-11T12:04:47.830Z,31.21
2018-08-11T12:05:48.140Z,31.74
2018-08-11T12:06:48.341Z,30.70
2018-08-11T12:07:48.590Z,28.32
2018-08-11T12:08:48.844Z,28.09
2018-08-11T12:09:49.098Z,29.86
2018-08-11T12:10:49.355Z,32.17
2018-08-11T12:11:49.606Z,33.98
2018-08-11T12:12:49.864Z,34.80
2018-08-11T12:13:50.120Z,37.57
2018-08-11T12:14:50.368Z,37.94
2018-08-11T12:15:50.620Z,37.94
2018-08-11T12:16:50.873Z,36.79
2018-08-11T12:17:51.128Z,33.95
2018-08-11T12:18:51.379Z,32.18
2018-08-11T12:19:51.635Z,33.04
2018-08-11T12:20:51.884Z,33.62
2018-08-11T12:21:52.136Z,30.77
2018-08-11T12:22:52.392Z,30.52
2018-08-11T12:23:52.642Z,31.79
2018-08-11T12:24:52.893Z,32.62
2018-08-11T12:25:53.147Z,34.22
2018-08-11T12:26:53.400Z,36.99
2018-08-11T12:27:53.652Z,37.55
2018-08-11T12:28:53.906Z,37.36
2018-08-11T12:29:54.157Z,35.40
2018-08-11T12:30:54.411Z,33.94
2018-08-11T12:31:54.660Z,35.29
2018-08-11T12:32:54.921Z,33.18
2018-08-11T12:33:55.165Z,30.65
2018-08-11T12:34:55.416Z,32.04
2018-08-11T12:35:55.670Z,31.97
2018-08-11T12:36:55.922Z,32.04
2018-08-11T12:37:56.241Z,34.01
2018-08-11T12:38:56.429Z,30.72
2018-08-11T12:39:56.680Z,32.52
2018-08-11T12:40:56.933Z,32.84
2018-08-11T12:41:57.185Z,32.08
2018-08-11T12:42:57.438Z,31.55
2018-08-11T12:43:57.689Z,32.92
2018-08-11T12:44:57.943Z,31.58
2018-08-11T12:45:58.246Z,29.68
2018-08-11T12:46:58.444Z,29.50
2018-08-11T12:47:58.698Z,29.91
2018-08-11T12:48:58.950Z,29.82
2018-08-11T12:49:59.204Z,28.74
2018-08-11T12:50:59.456Z,29.64
2018-08-11T12:51:59.707Z,28.30
2018-08-11T12:52:59.963Z,28.11
2018-08-11T12:54:00.215Z,27.17
2018-08-11T12:55:00.470Z,26.32
2018-08-11T12:56:00.721Z,28.08